ěÝzenÝ letovÚho provozu ╚eskÚ republiky
Letiste: LKKB Aktualizace: 13.07.2024 00:29:38  UTC
 METAR LKKB 13.07. 00:30 ...
METAR LKKB 130030Z 19004KT CAVOK 19/18 Q1009 RMK BLU=
 TAF LKKB 12.07. 23:00 ...
TAF LKKB 122300Z 1300/1400 33008KT CAVOK      TEMPO 1300/1308 24012KT 6000 SHRA BKN020TCU      PROB30 TEMPO 1300/1305 26015G25KT 4000 TSRA BKN018CB      TEMPO 1301/1305 VRB02KT 2000 BR OVC003      PROB30 TEMPO 1310/1318 20008KT 8000 SHRA SCT040TCU=